sensor_id;sensor_type;location;lat;lon;timestamp;P1;durP1;ratioP1;P2;durP2;ratioP2
15516;SDS011;7860;52.030;5.572;2023-09-07T00:01:06;10.56;;;5.78;;
15516;SDS011;7860;52.030;5.572;2023-09-07T00:01:54;9.90;;;5.83;;
15516;SDS011;7860;52.030;5.572;2023-09-07T00:02:54;10.30;;;6.03;;
15516;SDS011;7860;52.030;5.572;2023-09-07T00:03:54;10.84;;;5.70;;
15516;SDS011;7860;52.030;5.572;2023-09-07T00:04:54;10.93;;;6.05;;
15516;SDS011;7860;52.030;5.572;2023-09-07T00:05:55;10.55;;;6.26;;
15516;SDS011;7860;52.030;5.572;2023-09-07T00:06:54;11.03;;;5.98;;
15516;SDS011;7860;52.030;5.572;2023-09-07T00:07:55;10.15;;;5.81;;
15516;SDS011;7860;52.030;5.572;2023-09-07T00:08:55;10.77;;;6.16;;
15516;SDS011;7860;52.030;5.572;2023-09-07T00:09:55;9.97;;;5.98;;
15516;SDS011;7860;52.030;5.572;2023-09-07T00:10:55;10.33;;;6.12;;
15516;SDS011;7860;52.030;5.572;2023-09-07T00:11:55;9.11;;;5.58;;
15516;SDS011;7860;52.030;5.572;2023-09-07T00:12:55;10.92;;;5.61;;
15516;SDS011;7860;52.030;5.572;2023-09-07T00:13:55;10.42;;;5.52;;
15516;SDS011;7860;52.030;5.572;2023-09-07T00:14:55;9.24;;;5.63;;
15516;SDS011;7860;52.030;5.572;2023-09-07T00:15:57;9.33;;;5.46;;
15516;SDS011;7860;52.030;5.572;2023-09-07T00:16:55;9.29;;;5.65;;
15516;SDS011;7860;52.030;5.572;2023-09-07T00:17:56;10.14;;;5.74;;
15516;SDS011;7860;52.030;5.572;2023-09-07T00:18:55;10.49;;;5.99;;
15516;SDS011;7860;52.030;5.572;2023-09-07T00:19:56;11.77;;;5.84;;
15516;SDS011;7860;52.030;5.572;2023-09-07T00:20:56;10.02;;;5.58;;
15516;SDS011;7860;52.030;5.572;2023-09-07T00:21:56;9.64;;;5.73;;
15516;SDS011;7860;52.030;5.572;2023-09-07T00:22:56;10.81;;;5.85;;
15516;SDS011;7860;52.030;5.572;2023-09-07T00:23:56;10.90;;;5.89;;
15516;SDS011;7860;52.030;5.572;2023-09-07T00:24:56;10.49;;;5.78;;
15516;SDS011;7860;52.030;5.572;2023-09-07T00:25:56;10.83;;;5.99;;
15516;SDS011;7860;52.030;5.572;2023-09-07T00:26:56;10.49;;;5.81;;
15516;SDS011;7860;52.030;5.572;2023-09-07T00:27:56;10.34;;;5.48;;
15516;SDS011;7860;52.030;5.572;2023-09-07T00:28:56;9.56;;;5.61;;
15516;SDS011;7860;52.030;5.572;2023-09-07T00:29:56;9.56;;;5.62;;
15516;SDS011;7860;52.030;5.572;2023-09-07T00:30:56;9.28;;;5.49;;
15516;SDS011;7860;52.030;5.572;2023-09-07T00:31:56;8.02;;;5.28;;
15516;SDS011;7860;52.030;5.572;2023-09-07T00:32:57;8.48;;;5.30;;
15516;SDS011;7860;52.030;5.572;2023-09-07T00:33:57;9.20;;;5.76;;
15516;SDS011;7860;52.030;5.572;2023-09-07T00:34:57;9.79;;;5.95;;
15516;SDS011;7860;52.030;5.572;2023-09-07T00:35:57;10.03;;;5.66;;
15516;SDS011;7860;52.030;5.572;2023-09-07T00:36:57;9.78;;;5.85;;
15516;SDS011;7860;52.030;5.572;2023-09-07T00:37:57;11.20;;;6.07;;
15516;SDS011;7860;52.030;5.572;2023-09-07T00:38:57;11.09;;;5.74;;
15516;SDS011;7860;52.030;5.572;2023-09-07T00:39:57;10.36;;;5.66;;
15516;SDS011;7860;52.030;5.572;2023-09-07T00:40:57;10.03;;;5.85;;
15516;SDS011;7860;52.030;5.572;2023-09-07T00:41:57;9.77;;;5.91;;
15516;SDS011;7860;52.030;5.572;2023-09-07T00:42:58;10.75;;;5.77;;
15516;SDS011;7860;52.030;5.572;2023-09-07T00:43:57;10.02;;;6.22;;
15516;SDS011;7860;52.030;5.572;2023-09-07T00:44:58;10.09;;;6.04;;
15516;SDS011;7860;52.030;5.572;2023-09-07T00:45:58;10.81;;;6.45;;
15516;SDS011;7860;52.030;5.572;2023-09-07T00:46:58;10.15;;;6.08;;
15516;SDS011;7860;52.030;5.572;2023-09-07T00:47:58;10.46;;;6.04;;
15516;SDS011;7860;52.030;5.572;2023-09-07T00:48:58;9.25;;;5.60;;
15516;SDS011;7860;52.030;5.572;2023-09-07T00:49:58;9.71;;;6.03;;
15516;SDS011;7860;52.030;5.572;2023-09-07T00:50:58;9.29;;;5.50;;
15516;SDS011;7860;52.030;5.572;2023-09-07T00:51:58;13.09;;;6.17;;
15516;SDS011;7860;52.030;5.572;2023-09-07T00:52:58;10.88;;;6.16;;
15516;SDS011;7860;52.030;5.572;2023-09-07T00:53:58;10.75;;;6.28;;
15516;SDS011;7860;52.030;5.572;2023-09-07T00:54:58;9.88;;;6.08;;
15516;SDS011;7860;52.030;5.572;2023-09-07T00:55:58;11.58;;;6.23;;
15516;SDS011;7860;52.030;5.572;2023-09-07T00:56:58;10.33;;;5.88;;
15516;SDS011;7860;52.030;5.572;2023-09-07T00:57:58;11.13;;;6.07;;
15516;SDS011;7860;52.030;5.572;2023-09-07T00:58:59;10.70;;;6.11;;
15516;SDS011;7860;52.030;5.572;2023-09-07T00:59:59;11.06;;;6.02;;
15516;SDS011;7860;52.030;5.572;2023-09-07T01:00:59;12.31;;;6.43;;
15516;SDS011;7860;52.030;5.572;2023-09-07T01:01:59;11.18;;;6.22;;
15516;SDS011;7860;52.030;5.572;2023-09-07T01:02:59;11.93;;;6.03;;
15516;SDS011;7860;52.030;5.572;2023-09-07T01:03:59;11.14;;;6.48;;
15516;SDS011;7860;52.030;5.572;2023-09-07T01:04:59;11.25;;;6.52;;
15516;SDS011;7860;52.030;5.572;2023-09-07T01:06:01;10.85;;;6.01;;
15516;SDS011;7860;52.030;5.572;2023-09-07T01:07:01;8.28;;;5.49;;
15516;SDS011;7860;52.030;5.572;2023-09-07T01:08:01;9.92;;;5.65;;
15516;SDS011;7860;52.030;5.572;2023-09-07T01:09:00;10.62;;;5.97;;
15516;SDS011;7860;52.030;5.572;2023-09-07T01:10:00;9.80;;;5.62;;
15516;SDS011;7860;52.030;5.572;2023-09-07T01:10:59;10.99;;;6.24;;
15516;SDS011;7860;52.030;5.572;2023-09-07T01:11:59;10.67;;;6.23;;
15516;SDS011;7860;52.030;5.572;2023-09-07T01:13:00;11.99;;;6.28;;
15516;SDS011;7860;52.030;5.572;2023-09-07T01:14:00;10.65;;;6.13;;
15516;SDS011;7860;52.030;5.572;2023-09-07T01:15:00;11.49;;;6.33;;
15516;SDS011;7860;52.030;5.572;2023-09-07T01:16:00;12.99;;;6.38;;
15516;SDS011;7860;52.030;5.572;2023-09-07T01:17:00;10.75;;;5.89;;
15516;SDS011;7860;52.030;5.572;2023-09-07T01:18:00;12.00;;;6.14;;
15516;SDS011;7860;52.030;5.572;2023-09-07T01:19:00;11.85;;;6.44;;
15516;SDS011;7860;52.030;5.572;2023-09-07T01:20:01;10.64;;;6.13;;
15516;SDS011;7860;52.030;5.572;2023-09-07T01:21:00;10.22;;;6.08;;
15516;SDS011;7860;52.030;5.572;2023-09-07T01:22:00;9.97;;;5.82;;
15516;SDS011;7860;52.030;5.572;2023-09-07T01:23:01;10.61;;;6.11;;
15516;SDS011;7860;52.030;5.572;2023-09-07T01:24:00;9.70;;;5.72;;
15516;SDS011;7860;52.030;5.572;2023-09-07T01:25:01;10.58;;;5.31;;
15516;SDS011;7860;52.030;5.572;2023-09-07T01:26:01;9.36;;;5.84;;
15516;SDS011;7860;52.030;5.572;2023-09-07T01:27:01;10.51;;;5.41;;
15516;SDS011;7860;52.030;5.572;2023-09-07T01:28:01;10.13;;;6.05;;
15516;SDS011;7860;52.030;5.572;2023-09-07T01:29:01;12.35;;;6.38;;
15516;SDS011;7860;52.030;5.572;2023-09-07T01:30:01;11.39;;;6.21;;
15516;SDS011;7860;52.030;5.572;2023-09-07T01:31:01;11.65;;;6.17;;
15516;SDS011;7860;52.030;5.572;2023-09-07T01:32:01;10.85;;;6.02;;
15516;SDS011;7860;52.030;5.572;2023-09-07T01:33:01;11.06;;;5.92;;
15516;SDS011;7860;52.030;5.572;2023-09-07T01:34:01;12.22;;;6.37;;
15516;SDS011;7860;52.030;5.572;2023-09-07T01:35:01;11.71;;;6.16;;
15516;SDS011;7860;52.030;5.572;2023-09-07T01:36:01;11.54;;;6.33;;
15516;SDS011;7860;52.030;5.572;2023-09-07T01:37:01;11.65;;;6.50;;
15516;SDS011;7860;52.030;5.572;2023-09-07T01:38:02;9.89;;;5.67;;
15516;SDS011;7860;52.030;5.572;2023-09-07T01:39:02;11.16;;;6.14;;
15516;SDS011;7860;52.030;5.572;2023-09-07T01:40:02;10.94;;;6.31;;
15516;SDS011;7860;52.030;5.572;2023-09-07T01:41:02;10.95;;;6.19;;
15516;SDS011;7860;52.030;5.572;2023-09-07T01:42:02;10.47;;;6.14;;
15516;SDS011;7860;52.030;5.572;2023-09-07T01:43:02;10.01;;;5.90;;
15516;SDS011;7860;52.030;5.572;2023-09-07T01:44:02;9.14;;;5.39;;
15516;SDS011;7860;52.030;5.572;2023-09-07T01:45:02;9.45;;;5.63;;
15516;SDS011;7860;52.030;5.572;2023-09-07T01:46:02;10.44;;;5.65;;
15516;SDS011;7860;52.030;5.572;2023-09-07T01:47:02;11.62;;;5.93;;
15516;SDS011;7860;52.030;5.572;2023-09-07T01:48:02;14.46;;;6.68;;
15516;SDS011;7860;52.030;5.572;2023-09-07T01:49:02;8.90;;;5.29;;
15516;SDS011;7860;52.030;5.572;2023-09-07T01:50:02;8.78;;;5.49;;
15516;SDS011;7860;52.030;5.572;2023-09-07T01:51:03;9.00;;;5.63;;
15516;SDS011;7860;52.030;5.572;2023-09-07T01:52:03;10.13;;;5.62;;
15516;SDS011;7860;52.030;5.572;2023-09-07T01:53:03;9.30;;;5.37;;
15516;SDS011;7860;52.030;5.572;2023-09-07T01:54:03;9.03;;;5.48;;
15516;SDS011;7860;52.030;5.572;2023-09-07T01:55:03;8.34;;;5.29;;
15516;SDS011;7860;52.030;5.572;2023-09-07T01:56:03;9.33;;;5.68;;
15516;SDS011;7860;52.030;5.572;2023-09-07T01:57:03;8.72;;;5.71;;
15516;SDS011;7860;52.030;5.572;2023-09-07T01:58:03;9.43;;;5.66;;
15516;SDS011;7860;52.030;5.572;2023-09-07T01:59:03;8.92;;;5.78;;
15516;SDS011;7860;52.030;5.572;2023-09-07T02:00:04;10.39;;;5.68;;
15516;SDS011;7860;52.030;5.572;2023-09-07T02:01:03;10.12;;;6.01;;
15516;SDS011;7860;52.030;5.572;2023-09-07T02:02:03;9.25;;;5.80;;
15516;SDS011;7860;52.030;5.572;2023-09-07T02:03:03;8.05;;;5.55;;
15516;SDS011;7860;52.030;5.572;2023-09-07T02:04:04;9.76;;;5.89;;
15516;SDS011;7860;52.030;5.572;2023-09-07T02:05:04;9.06;;;5.77;;
15516;SDS011;7860;52.030;5.572;2023-09-07T02:06:03;8.99;;;5.79;;
15516;SDS011;7860;52.030;5.572;2023-09-07T02:07:04;9.47;;;5.97;;
15516;SDS011;7860;52.030;5.572;2023-09-07T02:08:04;9.24;;;6.24;;
15516;SDS011;7860;52.030;5.572;2023-09-07T02:09:04;9.50;;;5.89;;
15516;SDS011;7860;52.030;5.572;2023-09-07T02:10:04;10.22;;;6.15;;
15516;SDS011;7860;52.030;5.572;2023-09-07T02:11:05;11.82;;;6.32;;
15516;SDS011;7860;52.030;5.572;2023-09-07T02:12:04;11.34;;;6.04;;
15516;SDS011;7860;52.030;5.572;2023-09-07T02:13:04;9.83;;;6.21;;
15516;SDS011;7860;52.030;5.572;2023-09-07T02:14:04;9.08;;;5.62;;
15516;SDS011;7860;52.030;5.572;2023-09-07T02:15:05;10.53;;;6.46;;
15516;SDS011;7860;52.030;5.572;2023-09-07T02:16:04;8.91;;;5.88;;
15516;SDS011;7860;52.030;5.572;2023-09-07T02:17:04;9.58;;;5.79;;
15516;SDS011;7860;52.030;5.572;2023-09-07T02:18:04;8.88;;;5.91;;
15516;SDS011;7860;52.030;5.572;2023-09-07T02:19:05;8.67;;;5.67;;
15516;SDS011;7860;52.030;5.572;2023-09-07T02:20:05;9.41;;;6.20;;
15516;SDS011;7860;52.030;5.572;2023-09-07T02:21:05;9.27;;;6.22;;
15516;SDS011;7860;52.030;5.572;2023-09-07T02:22:05;9.19;;;6.00;;
15516;SDS011;7860;52.030;5.572;2023-09-07T02:23:05;9.24;;;5.81;;
15516;SDS011;7860;52.030;5.572;2023-09-07T02:24:05;9.42;;;6.27;;
15516;SDS011;7860;52.030;5.572;2023-09-07T02:25:05;9.25;;;5.93;;
15516;SDS011;7860;52.030;5.572;2023-09-07T02:26:05;9.99;;;6.33;;
15516;SDS011;7860;52.030;5.572;2023-09-07T02:27:05;8.94;;;5.77;;
15516;SDS011;7860;52.030;5.572;2023-09-07T02:28:05;9.31;;;6.02;;
15516;SDS011;7860;52.030;5.572;2023-09-07T02:29:05;9.43;;;6.14;;
15516;SDS011;7860;52.030;5.572;2023-09-07T02:30:06;9.24;;;5.98;;
15516;SDS011;7860;52.030;5.572;2023-09-07T02:31:05;9.06;;;6.10;;
15516;SDS011;7860;52.030;5.572;2023-09-07T02:32:06;10.78;;;6.40;;
15516;SDS011;7860;52.030;5.572;2023-09-07T02:33:05;9.87;;;6.35;;
15516;SDS011;7860;52.030;5.572;2023-09-07T02:34:06;9.84;;;6.48;;
15516;SDS011;7860;52.030;5.572;2023-09-07T02:35:06;9.06;;;6.45;;
15516;SDS011;7860;52.030;5.572;2023-09-07T02:36:06;10.45;;;6.58;;
15516;SDS011;7860;52.030;5.572;2023-09-07T02:37:06;11.33;;;6.91;;
15516;SDS011;7860;52.030;5.572;2023-09-07T02:38:06;9.89;;;6.57;;
15516;SDS011;7860;52.030;5.572;2023-09-07T02:39:06;10.01;;;6.42;;
15516;SDS011;7860;52.030;5.572;2023-09-07T02:40:06;9.86;;;6.45;;
15516;SDS011;7860;52.030;5.572;2023-09-07T02:41:06;9.79;;;6.49;;
15516;SDS011;7860;52.030;5.572;2023-09-07T02:42:06;9.92;;;6.68;;
15516;SDS011;7860;52.030;5.572;2023-09-07T02:43:06;10.38;;;6.46;;
15516;SDS011;7860;52.030;5.572;2023-09-07T02:44:06;9.58;;;6.55;;
15516;SDS011;7860;52.030;5.572;2023-09-07T02:45:06;9.96;;;6.76;;
15516;SDS011;7860;52.030;5.572;2023-09-07T02:46:06;10.02;;;6.54;;
15516;SDS011;7860;52.030;5.572;2023-09-07T02:47:07;9.91;;;6.68;;
15516;SDS011;7860;52.030;5.572;2023-09-07T02:48:07;11.05;;;7.19;;
15516;SDS011;7860;52.030;5.572;2023-09-07T02:49:07;9.62;;;6.69;;
15516;SDS011;7860;52.030;5.572;2023-09-07T02:50:07;11.30;;;7.01;;
15516;SDS011;7860;52.030;5.572;2023-09-07T02:51:07;10.71;;;6.70;;
15516;SDS011;7860;52.030;5.572;2023-09-07T02:52:07;11.12;;;6.90;;
15516;SDS011;7860;52.030;5.572;2023-09-07T02:53:07;11.45;;;6.89;;
15516;SDS011;7860;52.030;5.572;2023-09-07T02:54:07;10.42;;;6.97;;
15516;SDS011;7860;52.030;5.572;2023-09-07T02:55:07;12.11;;;6.99;;
15516;SDS011;7860;52.030;5.572;2023-09-07T02:56:07;11.01;;;6.98;;
15516;SDS011;7860;52.030;5.572;2023-09-07T02:57:07;10.42;;;6.66;;
15516;SDS011;7860;52.030;5.572;2023-09-07T02:58:07;10.74;;;7.19;;
15516;SDS011;7860;52.030;5.572;2023-09-07T02:59:07;10.64;;;6.97;;
15516;SDS011;7860;52.030;5.572;2023-09-07T03:00:08;11.48;;;6.88;;
15516;SDS011;7860;52.030;5.572;2023-09-07T03:01:08;10.55;;;6.87;;
15516;SDS011;7860;52.030;5.572;2023-09-07T03:02:08;11.09;;;7.03;;
15516;SDS011;7860;52.030;5.572;2023-09-07T03:03:08;10.47;;;7.06;;
15516;SDS011;7860;52.030;5.572;2023-09-07T03:04:08;10.35;;;6.48;;
15516;SDS011;7860;52.030;5.572;2023-09-07T03:05:08;10.26;;;7.07;;
15516;SDS011;7860;52.030;5.572;2023-09-07T03:06:08;10.76;;;7.15;;
15516;SDS011;7860;52.030;5.572;2023-09-07T03:07:08;10.68;;;6.86;;
15516;SDS011;7860;52.030;5.572;2023-09-07T03:08:08;11.02;;;6.80;;
15516;SDS011;7860;52.030;5.572;2023-09-07T03:09:08;11.62;;;7.09;;
15516;SDS011;7860;52.030;5.572;2023-09-07T03:10:09;11.34;;;7.05;;
15516;SDS011;7860;52.030;5.572;2023-09-07T03:11:08;11.10;;;7.09;;
15516;SDS011;7860;52.030;5.572;2023-09-07T03:12:08;11.08;;;7.08;;
15516;SDS011;7860;52.030;5.572;2023-09-07T03:13:08;10.48;;;7.13;;
15516;SDS011;7860;52.030;5.572;2023-09-07T03:14:08;9.93;;;7.04;;
15516;SDS011;7860;52.030;5.572;2023-09-07T03:15:09;11.38;;;7.30;;
15516;SDS011;7860;52.030;5.572;2023-09-07T03:16:09;10.44;;;7.36;;
15516;SDS011;7860;52.030;5.572;2023-09-07T03:17:09;14.41;;;7.45;;
15516;SDS011;7860;52.030;5.572;2023-09-07T03:18:09;9.97;;;7.00;;
15516;SDS011;7860;52.030;5.572;2023-09-07T03:19:10;10.48;;;7.13;;
15516;SDS011;7860;52.030;5.572;2023-09-07T03:20:09;10.38;;;7.22;;
15516;SDS011;7860;52.030;5.572;2023-09-07T03:21:09;11.81;;;7.65;;
15516;SDS011;7860;52.030;5.572;2023-09-07T03:22:09;11.00;;;7.10;;
15516;SDS011;7860;52.030;5.572;2023-09-07T03:23:09;10.12;;;7.17;;
15516;SDS011;7860;52.030;5.572;2023-09-07T03:24:09;9.61;;;6.75;;
15516;SDS011;7860;52.030;5.572;2023-09-07T03:25:09;11.52;;;6.78;;
15516;SDS011;7860;52.030;5.572;2023-09-07T03:26:09;10.10;;;6.75;;
15516;SDS011;7860;52.030;5.572;2023-09-07T03:27:09;11.26;;;6.96;;
15516;SDS011;7860;52.030;5.572;2023-09-07T03:28:09;12.41;;;6.88;;
15516;SDS011;7860;52.030;5.572;2023-09-07T03:29:10;11.68;;;6.92;;
15516;SDS011;7860;52.030;5.572;2023-09-07T03:30:10;11.64;;;7.01;;
15516;SDS011;7860;52.030;5.572;2023-09-07T03:31:10;10.58;;;7.10;;
15516;SDS011;7860;52.030;5.572;2023-09-07T03:32:10;11.19;;;7.00;;
15516;SDS011;7860;52.030;5.572;2023-09-07T03:33:10;10.56;;;7.22;;
15516;SDS011;7860;52.030;5.572;2023-09-07T03:34:10;10.46;;;6.92;;
15516;SDS011;7860;52.030;5.572;2023-09-07T03:35:10;11.40;;;7.41;;
15516;SDS011;7860;52.030;5.572;2023-09-07T03:36:10;10.99;;;7.17;;
15516;SDS011;7860;52.030;5.572;2023-09-07T03:37:10;10.50;;;7.07;;
15516;SDS011;7860;52.030;5.572;2023-09-07T03:38:10;11.76;;;7.21;;
15516;SDS011;7860;52.030;5.572;2023-09-07T03:39:10;11.00;;;7.10;;
15516;SDS011;7860;52.030;5.572;2023-09-07T03:40:10;10.48;;;7.28;;
15516;SDS011;7860;52.030;5.572;2023-09-07T03:41:10;10.27;;;7.01;;
15516;SDS011;7860;52.030;5.572;2023-09-07T03:42:10;10.48;;;7.12;;
15516;SDS011;7860;52.030;5.572;2023-09-07T03:43:11;11.03;;;7.07;;
15516;SDS011;7860;52.030;5.572;2023-09-07T03:44:11;10.10;;;6.70;;
15516;SDS011;7860;52.030;5.572;2023-09-07T03:45:11;10.98;;;7.10;;
15516;SDS011;7860;52.030;5.572;2023-09-07T03:46:11;10.11;;;6.58;;
15516;SDS011;7860;52.030;5.572;2023-09-07T03:47:13;10.80;;;6.90;;
15516;SDS011;7860;52.030;5.572;2023-09-07T03:48:11;10.53;;;6.77;;
15516;SDS011;7860;52.030;5.572;2023-09-07T03:49:11;10.70;;;6.63;;
15516;SDS011;7860;52.030;5.572;2023-09-07T03:50:11;11.16;;;7.01;;
15516;SDS011;7860;52.030;5.572;2023-09-07T03:51:11;11.20;;;6.83;;
15516;SDS011;7860;52.030;5.572;2023-09-07T03:52:11;10.23;;;6.82;;
15516;SDS011;7860;52.030;5.572;2023-09-07T03:53:11;10.53;;;6.88;;
15516;SDS011;7860;52.030;5.572;2023-09-07T03:54:11;11.99;;;7.18;;
15516;SDS011;7860;52.030;5.572;2023-09-07T03:55:11;10.10;;;6.80;;
15516;SDS011;7860;52.030;5.572;2023-09-07T03:56:11;10.83;;;7.02;;
15516;SDS011;7860;52.030;5.572;2023-09-07T03:57:12;10.43;;;7.09;;
15516;SDS011;7860;52.030;5.572;2023-09-07T03:58:12;11.00;;;6.82;;
15516;SDS011;7860;52.030;5.572;2023-09-07T03:59:12;9.80;;;6.77;;
15516;SDS011;7860;52.030;5.572;2023-09-07T04:00:12;11.32;;;6.99;;
15516;SDS011;7860;52.030;5.572;2023-09-07T04:01:12;10.78;;;6.97;;
15516;SDS011;7860;52.030;5.572;2023-09-07T04:02:12;9.99;;;6.58;;
15516;SDS011;7860;52.030;5.572;2023-09-07T04:03:12;10.41;;;6.65;;
15516;SDS011;7860;52.030;5.572;2023-09-07T04:04:12;10.84;;;6.90;;
15516;SDS011;7860;52.030;5.572;2023-09-07T04:05:12;13.64;;;6.94;;
15516;SDS011;7860;52.030;5.572;2023-09-07T04:06:12;9.96;;;7.03;;
15516;SDS011;7860;52.030;5.572;2023-09-07T04:07:12;9.22;;;6.58;;
15516;SDS011;7860;52.030;5.572;2023-09-07T04:08:12;10.19;;;6.56;;
15516;SDS011;7860;52.030;5.572;2023-09-07T04:09:12;9.23;;;6.43;;
15516;SDS011;7860;52.030;5.572;2023-09-07T04:10:12;9.20;;;6.23;;
15516;SDS011;7860;52.030;5.572;2023-09-07T04:11:13;9.36;;;6.37;;
15516;SDS011;7860;52.030;5.572;2023-09-07T04:12:13;10.95;;;7.33;;
15516;SDS011;7860;52.030;5.572;2023-09-07T04:13:13;9.91;;;7.15;;
15516;SDS011;7860;52.030;5.572;2023-09-07T04:14:13;10.76;;;6.86;;
15516;SDS011;7860;52.030;5.572;2023-09-07T04:15:13;10.91;;;6.95;;
15516;SDS011;7860;52.030;5.572;2023-09-07T04:16:13;10.04;;;6.91;;
15516;SDS011;7860;52.030;5.572;2023-09-07T04:17:13;10.97;;;7.28;;
15516;SDS011;7860;52.030;5.572;2023-09-07T04:18:13;13.10;;;7.36;;
15516;SDS011;7860;52.030;5.572;2023-09-07T04:19:13;11.05;;;7.50;;
15516;SDS011;7860;52.030;5.572;2023-09-07T04:20:13;10.19;;;7.20;;
15516;SDS011;7860;52.030;5.572;2023-09-07T04:21:13;11.77;;;7.26;;
15516;SDS011;7860;52.030;5.572;2023-09-07T04:22:13;9.73;;;7.05;;
15516;SDS011;7860;52.030;5.572;2023-09-07T04:23:13;11.43;;;7.58;;
15516;SDS011;7860;52.030;5.572;2023-09-07T04:24:14;11.19;;;7.50;;
15516;SDS011;7860;52.030;5.572;2023-09-07T04:25:14;10.40;;;7.28;;
15516;SDS011;7860;52.030;5.572;2023-09-07T04:26:14;10.61;;;7.10;;
15516;SDS011;7860;52.030;5.572;2023-09-07T04:27:14;11.85;;;7.74;;
15516;SDS011;7860;52.030;5.572;2023-09-07T04:28:14;10.49;;;6.93;;
15516;SDS011;7860;52.030;5.572;2023-09-07T04:29:14;11.72;;;7.67;;
15516;SDS011;7860;52.030;5.572;2023-09-07T04:30:14;10.70;;;7.24;;
15516;SDS011;7860;52.030;5.572;2023-09-07T04:31:14;10.38;;;7.25;;
15516;SDS011;7860;52.030;5.572;2023-09-07T04:32:14;10.83;;;7.21;;
15516;SDS011;7860;52.030;5.572;2023-09-07T04:33:14;10.22;;;7.46;;
15516;SDS011;7860;52.030;5.572;2023-09-07T04:34:14;11.63;;;7.17;;
15516;SDS011;7860;52.030;5.572;2023-09-07T04:35:14;11.60;;;7.54;;
15516;SDS011;7860;52.030;5.572;2023-09-07T04:36:14;10.64;;;7.03;;
15516;SDS011;7860;52.030;5.572;2023-09-07T04:37:15;10.79;;;7.22;;
15516;SDS011;7860;52.030;5.572;2023-09-07T04:38:15;11.93;;;7.59;;
15516;SDS011;7860;52.030;5.572;2023-09-07T04:39:15;11.97;;;7.48;;
15516;SDS011;7860;52.030;5.572;2023-09-07T04:40:15;10.65;;;7.02;;
15516;SDS011;7860;52.030;5.572;2023-09-07T04:41:15;11.24;;;7.25;;
15516;SDS011;7860;52.030;5.572;2023-09-07T04:42:15;10.85;;;6.89;;
15516;SDS011;7860;52.030;5.572;2023-09-07T04:43:15;11.26;;;7.17;;
15516;SDS011;7860;52.030;5.572;2023-09-07T04:44:15;10.22;;;7.28;;
15516;SDS011;7860;52.030;5.572;2023-09-07T04:45:15;10.78;;;7.30;;
15516;SDS011;7860;52.030;5.572;2023-09-07T04:46:15;11.58;;;7.17;;
15516;SDS011;7860;52.030;5.572;2023-09-07T04:47:15;12.21;;;7.27;;
15516;SDS011;7860;52.030;5.572;2023-09-07T04:48:15;11.35;;;7.23;;
15516;SDS011;7860;52.030;5.572;2023-09-07T04:49:16;11.32;;;7.13;;
15516;SDS011;7860;52.030;5.572;2023-09-07T04:50:16;11.16;;;7.03;;
15516;SDS011;7860;52.030;5.572;2023-09-07T04:51:16;10.46;;;7.23;;
15516;SDS011;7860;52.030;5.572;2023-09-07T04:52:16;10.69;;;7.21;;
15516;SDS011;7860;52.030;5.572;2023-09-07T04:53:16;10.76;;;6.84;;
15516;SDS011;7860;52.030;5.572;2023-09-07T04:54:16;11.37;;;7.22;;
15516;SDS011;7860;52.030;5.572;2023-09-07T04:55:16;10.35;;;7.12;;
15516;SDS011;7860;52.030;5.572;2023-09-07T04:56:16;10.78;;;6.98;;
15516;SDS011;7860;52.030;5.572;2023-09-07T04:57:16;11.10;;;6.98;;
15516;SDS011;7860;52.030;5.572;2023-09-07T04:58:16;9.85;;;6.80;;
15516;SDS011;7860;52.030;5.572;2023-09-07T04:59:16;9.97;;;6.72;;
15516;SDS011;7860;52.030;5.572;2023-09-07T05:00:16;10.48;;;6.78;;
15516;SDS011;7860;52.030;5.572;2023-09-07T05:01:16;10.99;;;7.27;;
15516;SDS011;7860;52.030;5.572;2023-09-07T05:02:16;11.12;;;6.59;;
15516;SDS011;7860;52.030;5.572;2023-09-07T05:03:17;10.98;;;6.73;;
15516;SDS011;7860;52.030;5.572;2023-09-07T05:04:17;12.36;;;7.01;;
15516;SDS011;7860;52.030;5.572;2023-09-07T05:05:17;10.89;;;6.37;;
15516;SDS011;7860;52.030;5.572;2023-09-07T05:06:17;10.85;;;6.82;;
15516;SDS011;7860;52.030;5.572;2023-09-07T05:07:17;10.66;;;6.70;;
15516;SDS011;7860;52.030;5.572;2023-09-07T05:08:17;11.31;;;6.92;;
15516;SDS011;7860;52.030;5.572;2023-09-07T05:09:17;10.01;;;7.13;;
15516;SDS011;7860;52.030;5.572;2023-09-07T05:10:17;10.52;;;6.75;;
15516;SDS011;7860;52.030;5.572;2023-09-07T05:11:17;9.97;;;6.53;;
15516;SDS011;7860;52.030;5.572;2023-09-07T05:12:17;11.34;;;7.04;;
15516;SDS011;7860;52.030;5.572;2023-09-07T05:13:17;11.23;;;7.02;;
15516;SDS011;7860;52.030;5.572;2023-09-07T05:14:17;10.93;;;6.88;;
15516;SDS011;7860;52.030;5.572;2023-09-07T05:15:17;12.23;;;7.36;;
15516;SDS011;7860;52.030;5.572;2023-09-07T05:16:17;10.96;;;7.01;;
15516;SDS011;7860;52.030;5.572;2023-09-07T05:17:18;11.12;;;6.84;;
15516;SDS011;7860;52.030;5.572;2023-09-07T05:18:18;9.98;;;7.08;;
15516;SDS011;7860;52.030;5.572;2023-09-07T05:19:18;11.68;;;6.80;;
15516;SDS011;7860;52.030;5.572;2023-09-07T05:20:18;11.49;;;7.24;;
15516;SDS011;7860;52.030;5.572;2023-09-07T05:21:18;10.23;;;6.94;;
15516;SDS011;7860;52.030;5.572;2023-09-07T05:22:18;10.14;;;6.68;;
15516;SDS011;7860;52.030;5.572;2023-09-07T05:23:18;10.69;;;7.16;;
15516;SDS011;7860;52.030;5.572;2023-09-07T05:24:18;10.35;;;6.69;;
15516;SDS011;7860;52.030;5.572;2023-09-07T05:25:18;10.60;;;6.87;;
15516;SDS011;7860;52.030;5.572;2023-09-07T05:26:20;10.75;;;6.45;;
15516;SDS011;7860;52.030;5.572;2023-09-07T05:27:18;11.53;;;6.20;;
15516;SDS011;7860;52.030;5.572;2023-09-07T05:28:19;9.50;;;6.43;;
15516;SDS011;7860;52.030;5.572;2023-09-07T05:29:19;9.95;;;6.41;;
15516;SDS011;7860;52.030;5.572;2023-09-07T05:30:19;11.46;;;6.88;;
15516;SDS011;7860;52.030;5.572;2023-09-07T05:31:19;10.91;;;6.49;;
15516;SDS011;7860;52.030;5.572;2023-09-07T05:32:19;12.19;;;6.67;;
15516;SDS011;7860;52.030;5.572;2023-09-07T05:33:19;10.96;;;6.79;;
15516;SDS011;7860;52.030;5.572;2023-09-07T05:34:19;12.32;;;7.09;;
15516;SDS011;7860;52.030;5.572;2023-09-07T05:35:19;11.81;;;7.24;;
15516;SDS011;7860;52.030;5.572;2023-09-07T05:36:19;11.15;;;6.97;;
15516;SDS011;7860;52.030;5.572;2023-09-07T05:37:19;9.91;;;6.71;;
15516;SDS011;7860;52.030;5.572;2023-09-07T05:38:19;10.80;;;6.28;;
15516;SDS011;7860;52.030;5.572;2023-09-07T05:39:19;11.87;;;7.25;;
15516;SDS011;7860;52.030;5.572;2023-09-07T05:40:19;11.81;;;6.90;;
15516;SDS011;7860;52.030;5.572;2023-09-07T05:41:19;12.80;;;7.23;;
15516;SDS011;7860;52.030;5.572;2023-09-07T05:42:20;10.97;;;6.65;;
15516;SDS011;7860;52.030;5.572;2023-09-07T05:43:20;10.85;;;6.81;;
15516;SDS011;7860;52.030;5.572;2023-09-07T05:44:20;10.00;;;6.62;;
15516;SDS011;7860;52.030;5.572;2023-09-07T05:45:20;12.75;;;6.82;;
15516;SDS011;7860;52.030;5.572;2023-09-07T05:46:20;13.50;;;7.08;;
15516;SDS011;7860;52.030;5.572;2023-09-07T05:47:20;11.25;;;6.92;;
15516;SDS011;7860;52.030;5.572;2023-09-07T05:48:20;11.31;;;6.42;;
15516;SDS011;7860;52.030;5.572;2023-09-07T05:49:20;11.47;;;6.52;;
15516;SDS011;7860;52.030;5.572;2023-09-07T05:50:20;11.17;;;6.56;;
15516;SDS011;7860;52.030;5.572;2023-09-07T05:51:20;12.97;;;7.31;;
15516;SDS011;7860;52.030;5.572;2023-09-07T05:52:20;11.77;;;6.83;;
15516;SDS011;7860;52.030;5.572;2023-09-07T05:53:21;9.52;;;5.65;;
15516;SDS011;7860;52.030;5.572;2023-09-07T05:54:21;10.08;;;6.57;;
15516;SDS011;7860;52.030;5.572;2023-09-07T05:55:21;12.64;;;6.00;;
15516;SDS011;7860;52.030;5.572;2023-09-07T05:56:21;10.97;;;6.89;;
15516;SDS011;7860;52.030;5.572;2023-09-07T05:57:21;10.59;;;6.20;;
15516;SDS011;7860;52.030;5.572;2023-09-07T05:58:21;10.70;;;6.85;;
15516;SDS011;7860;52.030;5.572;2023-09-07T05:59:21;12.36;;;6.73;;
15516;SDS011;7860;52.030;5.572;2023-09-07T06:00:21;10.66;;;6.55;;
15516;SDS011;7860;52.030;5.572;2023-09-07T06:01:21;11.03;;;6.50;;
15516;SDS011;7860;52.030;5.572;2023-09-07T06:02:21;14.67;;;6.47;;
15516;SDS011;7860;52.030;5.572;2023-09-07T06:03:21;9.14;;;5.73;;